ADDS METAR Data

Data at: 0748 UTC 24 Oct 2017

METAR for:KPVC (Provincetown Muni, MA, US)
Text:KPVC 240656Z AUTO 16011KT 10SM CLR 18/16 A3012 RMK AO2 SLP200 T01830156
Temperature: 18.3°C ( 65°F)
Dewpoint: 15.6°C ( 60°F) [RH = 84%]
Pressure (altimeter):30.12 inches Hg (1020.1 mb) [Sea level pressure: 1020.0 mb]
Winds:from the SSE (160 degrees) at 13 MPH (11 knots; 5.7 m/s)
Visibility:10 or more sm (16+ km)
Ceiling:at least 12,000 feet AGL
Clouds:sky clear below 12,000 feet AGL
QC Flag:automated observation with no human augmentation